createdAt,value
2023-05-12T00:00:46.768Z,129.50
2023-05-12T00:02:47.247Z,130.70
2023-05-12T00:04:47.746Z,150.30
2023-05-12T00:06:48.072Z,146.50
2023-05-12T00:08:48.403Z,132.70
2023-05-12T00:10:48.850Z,131.90
2023-05-12T00:12:49.232Z,115.30
2023-05-12T00:14:49.683Z,130.20
2023-05-12T00:16:50.211Z,131.90
2023-05-12T00:18:50.698Z,117.50
2023-05-12T00:20:51.155Z,120.90
2023-05-12T00:22:51.535Z,116.30
2023-05-12T00:24:51.998Z,120.90
2023-05-12T00:26:52.450Z,137.60
2023-05-12T00:28:52.913Z,116.60
2023-05-12T00:30:53.318Z,137.30
2023-05-12T00:32:53.684Z,122.80
2023-05-12T00:34:54.105Z,116.80
2023-05-12T00:36:54.511Z,113.20
2023-05-12T00:38:54.915Z,126.90
2023-05-12T00:40:55.246Z,129.50
2023-05-12T00:42:55.651Z,145.40
2023-05-12T00:44:56.039Z,165.90
2023-05-12T00:46:56.416Z,169.00
2023-05-12T00:48:56.735Z,156.60
2023-05-12T00:50:57.092Z,164.30
2023-05-12T00:52:57.485Z,162.20
2023-05-12T00:55:01.003Z,172.10
2023-05-12T00:57:01.332Z,151.60
2023-05-12T00:59:01.713Z,178.00
2023-05-12T01:01:02.139Z,146.80
2023-05-12T01:03:02.523Z,166.10
2023-05-12T01:05:02.963Z,176.10
2023-05-12T01:07:03.307Z,171.80
2023-05-12T01:09:03.625Z,173.00
2023-05-12T01:11:04.071Z,173.60
2023-05-12T01:13:04.454Z,166.20
2023-05-12T01:15:04.935Z,169.40
2023-05-12T01:17:05.473Z,160.90
2023-05-12T01:19:05.814Z,158.90
2023-05-12T01:21:06.337Z,170.80
2023-05-12T01:23:06.797Z,144.30
2023-05-12T01:25:07.365Z,138.60
2023-05-12T01:27:07.710Z,122.70
2023-05-12T01:29:08.318Z,137.60
2023-05-12T01:31:08.719Z,150.20
2023-05-12T01:33:09.098Z,146.60
2023-05-12T01:35:09.512Z,156.00
2023-05-12T01:37:09.821Z,178.20
2023-05-12T01:39:15.033Z,194.40
2023-05-12T01:41:15.490Z,209.00
2023-05-12T01:43:15.898Z,198.00
2023-05-12T01:45:16.263Z,215.20
2023-05-12T01:47:16.682Z,206.20
2023-05-12T01:49:17.087Z,183.20
2023-05-12T01:51:22.280Z,179.50
2023-05-12T01:53:22.645Z,163.60
2023-05-12T01:55:23.012Z,194.60
2023-05-12T01:57:23.485Z,194.70
2023-05-12T01:59:23.886Z,198.10
2023-05-12T02:01:24.268Z,178.20
2023-05-12T02:03:24.677Z,166.40
2023-05-12T02:05:25.123Z,142.10
2023-05-12T02:07:25.550Z,144.20
2023-05-12T02:09:25.944Z,145.80
2023-05-12T02:11:26.291Z,151.50
2023-05-12T02:13:26.678Z,146.00
2023-05-12T02:15:27.041Z,143.10
2023-05-12T02:17:27.430Z,163.80
2023-05-12T02:19:27.830Z,152.40
2023-05-12T02:22:09.823Z,161.80
2023-05-12T02:24:10.167Z,164.20
2023-05-12T02:26:10.525Z,138.00
2023-05-12T02:28:10.890Z,136.40
2023-05-12T02:30:11.178Z,148.00
2023-05-12T02:32:11.515Z,149.80
2023-05-12T02:34:11.874Z,152.50
2023-05-12T02:36:12.441Z,157.20
2023-05-12T02:38:12.726Z,147.00
2023-05-12T02:40:13.027Z,142.40
2023-05-12T02:42:13.310Z,155.90
2023-05-12T02:44:13.668Z,139.00
2023-05-12T02:46:13.925Z,136.40
2023-05-12T02:48:14.246Z,120.00
2023-05-12T02:50:14.591Z,121.40
2023-05-12T02:52:14.942Z,122.00
2023-05-12T02:54:15.188Z,126.70
2023-05-12T02:56:15.542Z,135.90
2023-05-12T02:58:20.716Z,124.20
2023-05-12T03:00:21.175Z,115.90
2023-05-12T03:02:21.597Z,124.80
2023-05-12T03:04:22.064Z,138.30
2023-05-12T03:06:22.367Z,148.90
2023-05-12T03:08:22.663Z,145.40
2023-05-12T03:10:23.285Z,150.60
2023-05-12T03:12:23.718Z,150.00
2023-05-12T03:14:24.040Z,151.80
2023-05-12T03:16:24.368Z,145.50
2023-05-12T03:18:24.682Z,157.00
2023-05-12T03:20:24.938Z,158.60
2023-05-12T03:22:25.251Z,162.60
2023-05-12T03:24:25.633Z,175.70
2023-05-12T03:26:25.963Z,161.70
2023-05-12T03:28:26.202Z,182.50
2023-05-12T03:30:26.539Z,159.80
2023-05-12T03:32:26.921Z,176.30
2023-05-12T03:34:27.186Z,185.40
2023-05-12T03:36:27.536Z,193.80
2023-05-12T03:38:27.767Z,161.90
2023-05-12T03:40:28.092Z,163.10
2023-05-12T03:42:28.424Z,172.20
2023-05-12T03:44:28.706Z,168.20
2023-05-12T03:46:29.081Z,180.30
2023-05-12T03:48:29.511Z,175.40
2023-05-12T03:50:29.799Z,190.70
2023-05-12T03:52:30.271Z,198.60
2023-05-12T03:54:30.576Z,198.10
2023-05-12T03:56:30.881Z,201.90
2023-05-12T03:58:31.167Z,198.90
2023-05-12T04:00:31.483Z,208.30
2023-05-12T04:02:31.925Z,206.60
2023-05-12T04:04:32.265Z,203.30
2023-05-12T04:06:32.554Z,206.30
2023-05-12T04:08:32.846Z,197.10
2023-05-12T04:10:33.866Z,173.20
2023-05-12T04:12:34.187Z,188.30
2023-05-12T04:14:42.194Z,181.20
2023-05-12T04:16:40.241Z,185.80
2023-05-12T04:18:40.621Z,206.10
2023-05-12T04:20:40.979Z,181.30
2023-05-12T04:22:41.255Z,193.80
2023-05-12T04:24:41.530Z,184.90
2023-05-12T04:26:41.896Z,186.40
2023-05-12T04:28:42.128Z,189.70
2023-05-12T04:30:42.485Z,183.00
2023-05-12T04:32:42.930Z,187.10
2023-05-12T04:34:43.200Z,182.80
2023-05-12T04:36:43.479Z,184.70
2023-05-12T04:38:43.773Z,178.80
2023-05-12T04:40:44.088Z,203.00
2023-05-12T04:42:44.360Z,179.30
2023-05-12T04:44:49.568Z,194.50
2023-05-12T04:46:49.858Z,175.70
2023-05-12T04:48:50.129Z,198.00
2023-05-12T04:50:50.530Z,207.80
2023-05-12T04:52:50.810Z,200.70
2023-05-12T04:54:51.120Z,197.90
2023-05-12T04:56:51.388Z,195.60
2023-05-12T04:58:51.705Z,196.60
2023-05-12T05:00:52.079Z,173.90
2023-05-12T05:02:52.756Z,166.10
2023-05-12T05:04:53.374Z,207.70
2023-05-12T05:06:53.706Z,210.40
2023-05-12T05:08:54.073Z,187.30
2023-05-12T05:10:54.320Z,190.10
2023-05-12T05:12:54.629Z,175.90
2023-05-12T05:14:54.897Z,182.90
2023-05-12T05:16:55.202Z,188.60
2023-05-12T05:18:55.536Z,209.30
2023-05-12T05:20:58.558Z,193.60
2023-05-12T05:22:59.807Z,193.00
2023-05-12T05:25:00.858Z,189.00
2023-05-12T05:27:01.299Z,192.70
2023-05-12T05:29:01.620Z,177.70
2023-05-12T05:31:02.078Z,176.60
2023-05-12T05:33:02.488Z,184.60
2023-05-12T05:35:02.798Z,200.60
2023-05-12T05:37:03.131Z,186.70
2023-05-12T05:39:03.441Z,188.50
2023-05-12T05:41:03.745Z,192.70
2023-05-12T05:43:04.033Z,195.60
2023-05-12T05:45:04.380Z,192.20
2023-05-12T05:47:04.862Z,192.30
2023-05-12T05:49:05.225Z,174.40
2023-05-12T05:51:05.532Z,182.20
2023-05-12T05:53:05.823Z,179.80
2023-05-12T05:55:06.113Z,202.20
2023-05-12T05:57:06.537Z,178.60
2023-05-12T05:59:06.770Z,166.60
2023-05-12T06:01:07.104Z,189.60
2023-05-12T06:03:07.558Z,168.00
2023-05-12T06:05:14.231Z,174.10
2023-05-12T06:07:14.840Z,171.10
2023-05-12T06:09:15.112Z,157.00
2023-05-12T06:11:17.227Z,157.50
2023-05-12T06:13:20.655Z,164.80
2023-05-12T06:15:21.204Z,173.40
2023-05-12T06:17:26.205Z,166.90
2023-05-12T06:19:26.465Z,175.10
2023-05-12T06:21:26.892Z,179.00
2023-05-12T06:23:27.204Z,171.00
2023-05-12T06:25:27.494Z,129.50
2023-05-12T06:27:27.835Z,151.70
2023-05-12T06:29:28.209Z,172.50
2023-05-12T06:31:28.497Z,132.80
2023-05-12T06:33:28.836Z,124.90
2023-05-12T06:35:29.116Z,124.10
2023-05-12T06:37:29.389Z,106.70
2023-05-12T06:39:29.749Z,104.60
2023-05-12T06:41:30.058Z,75.70
2023-05-12T06:43:30.361Z,94.50
2023-05-12T06:45:30.724Z,79.70
2023-05-12T06:47:31.033Z,99.10
2023-05-12T06:49:31.322Z,86.90
2023-05-12T06:51:31.656Z,72.00
2023-05-12T06:53:31.918Z,60.80
2023-05-12T06:55:32.396Z,65.40
2023-05-12T06:57:32.678Z,58.20
2023-05-12T06:59:33.221Z,63.10
2023-05-12T07:01:33.666Z,67.90
2023-05-12T07:03:34.050Z,61.80
2023-05-12T07:05:34.427Z,70.00
2023-05-12T07:07:34.692Z,63.50
2023-05-12T07:09:34.975Z,64.90
2023-05-12T07:11:35.359Z,66.40
2023-05-12T07:13:35.665Z,69.30
2023-05-12T07:15:36.141Z,59.80
2023-05-12T07:17:36.806Z,48.60
2023-05-12T07:19:37.155Z,28.30
2023-05-12T07:21:37.556Z,28.60
2023-05-12T07:23:37.837Z,28.60
2023-05-12T07:25:38.277Z,32.60
2023-05-12T07:27:43.949Z,26.50
2023-05-12T07:29:44.266Z,30.20
2023-05-12T07:31:44.787Z,33.90
2023-05-12T07:33:45.243Z,35.80
2023-05-12T07:35:45.551Z,25.30
2023-05-12T07:37:45.810Z,22.70
2023-05-12T07:39:46.152Z,32.10
2023-05-12T07:41:46.550Z,38.90
2023-05-12T07:43:46.937Z,26.00
2023-05-12T07:45:47.262Z,24.60
2023-05-12T07:47:47.578Z,22.90
2023-05-12T07:49:47.925Z,26.40
2023-05-12T07:51:48.160Z,27.00
2023-05-12T07:53:48.538Z,20.50
2023-05-12T07:55:48.878Z,25.60
2023-05-12T07:57:49.180Z,23.50
2023-05-12T07:59:49.552Z,19.90
2023-05-12T08:01:49.894Z,20.00
2023-05-12T08:03:50.288Z,22.30
2023-05-12T08:05:55.420Z,19.10
2023-05-12T08:07:55.753Z,20.70
2023-05-12T08:09:56.097Z,18.20
2023-05-12T08:11:56.405Z,19.30
2023-05-12T08:13:56.766Z,21.00
2023-05-12T08:15:57.073Z,21.20
2023-05-12T08:17:57.431Z,19.10
2023-05-12T08:19:57.771Z,14.90
2023-05-12T08:21:58.139Z,16.60
2023-05-12T08:23:58.400Z,14.60
2023-05-12T08:25:58.745Z,18.20
2023-05-12T08:27:59.095Z,18.10
2023-05-12T08:29:59.391Z,16.90
2023-05-12T08:31:59.680Z,15.40
2023-05-12T08:34:09.604Z,15.00
2023-05-12T08:36:05.290Z,12.60
2023-05-12T08:38:05.588Z,14.50
2023-05-12T08:40:05.909Z,15.90
2023-05-12T08:42:06.239Z,14.60
2023-05-12T08:44:06.548Z,12.50
2023-05-12T08:46:06.875Z,14.20
2023-05-12T08:48:07.187Z,14.50
2023-05-12T08:50:07.512Z,16.60
2023-05-12T08:52:07.909Z,15.70
2023-05-12T08:54:08.233Z,17.30
2023-05-12T08:58:11.772Z,12.20
2023-05-12T09:00:12.120Z,11.30
2023-05-12T09:02:12.508Z,14.00
2023-05-12T09:04:12.781Z,11.70
2023-05-12T09:06:13.117Z,12.10
2023-05-12T09:08:13.448Z,13.20
2023-05-12T09:10:25.959Z,12.60
2023-05-12T09:12:19.039Z,11.10
2023-05-12T09:14:19.365Z,13.10
2023-05-12T09:16:24.599Z,13.20
2023-05-12T09:18:24.955Z,11.10
2023-05-12T09:20:31.483Z,10.40
2023-05-12T09:22:30.722Z,13.40
2023-05-12T09:24:31.038Z,11.30
2023-05-12T09:26:31.358Z,12.10
2023-05-12T09:28:31.627Z,12.60
2023-05-12T09:30:31.900Z,15.10
2023-05-12T09:32:33.036Z,11.80
2023-05-12T09:34:33.403Z,13.10
2023-05-12T09:36:34.025Z,12.90
2023-05-12T09:38:34.381Z,12.70
2023-05-12T09:40:34.681Z,10.40
2023-05-12T09:42:35.054Z,13.10
2023-05-12T09:44:35.278Z,12.10
2023-05-12T09:46:35.748Z,10.90
2023-05-12T09:48:36.050Z,10.80
2023-05-12T09:50:46.536Z,11.60
2023-05-12T09:52:41.576Z,10.60
2023-05-12T09:54:41.856Z,11.70
2023-05-12T09:56:42.184Z,11.40
2023-05-12T09:58:42.532Z,11.50
2023-05-12T10:02:46.776Z,13.60
2023-05-12T10:04:47.155Z,11.30
2023-05-12T10:06:47.448Z,11.00
2023-05-12T10:08:47.756Z,13.80
2023-05-12T10:10:48.030Z,11.60
2023-05-12T10:12:48.369Z,11.40
2023-05-12T10:14:48.717Z,11.30
2023-05-12T10:16:49.052Z,14.20
2023-05-12T10:18:49.405Z,13.10
2023-05-12T10:20:49.706Z,10.00
2023-05-12T10:22:50.047Z,10.80
2023-05-12T10:24:50.336Z,9.30
2023-05-12T10:26:50.741Z,9.40
2023-05-12T10:28:51.156Z,9.80
2023-05-12T10:30:51.588Z,10.40
2023-05-12T10:32:51.865Z,11.40
2023-05-12T10:34:52.230Z,9.60
2023-05-12T10:36:52.588Z,10.00
2023-05-12T10:38:52.889Z,10.30
2023-05-12T10:40:53.189Z,11.20
2023-05-12T10:42:53.508Z,12.20
2023-05-12T10:44:53.819Z,10.50
2023-05-12T10:46:54.155Z,9.20
2023-05-12T10:48:54.478Z,9.20
2023-05-12T10:50:54.762Z,9.70
2023-05-12T10:52:55.061Z,10.90
2023-05-12T10:54:55.424Z,10.10
2023-05-12T10:56:55.969Z,10.20
2023-05-12T10:59:01.091Z,11.90
2023-05-12T11:01:02.066Z,12.30
2023-05-12T11:03:08.155Z,12.20
2023-05-12T11:05:08.501Z,13.40
2023-05-12T11:07:09.618Z,11.40
2023-05-12T11:09:11.068Z,13.60
2023-05-12T11:11:11.584Z,13.90
2023-05-12T11:13:11.855Z,11.00
2023-05-12T11:15:12.264Z,9.50
2023-05-12T11:17:12.519Z,9.70
2023-05-12T11:19:12.895Z,10.90
2023-05-12T11:21:13.207Z,10.20
2023-05-12T11:23:13.490Z,10.30
2023-05-12T11:25:13.792Z,9.70
2023-05-12T11:27:14.165Z,12.20
2023-05-12T11:29:14.491Z,8.60
2023-05-12T11:31:14.782Z,9.70
2023-05-12T11:33:15.142Z,10.30
2023-05-12T11:35:15.508Z,10.60
2023-05-12T11:37:15.802Z,8.80
2023-05-12T11:39:16.065Z,8.10
2023-05-12T11:41:16.439Z,9.70
2023-05-12T11:43:16.666Z,9.40
2023-05-12T11:45:16.970Z,9.50
2023-05-12T11:47:17.330Z,9.70
2023-05-12T11:49:17.620Z,12.60
2023-05-12T11:51:18.021Z,10.00
2023-05-12T11:53:18.278Z,9.10
2023-05-12T11:55:18.710Z,11.60
2023-05-12T11:57:19.070Z,10.10
2023-05-12T11:59:19.390Z,9.20
2023-05-12T12:01:19.718Z,8.00
2023-05-12T12:03:20.196Z,9.60
2023-05-12T12:05:20.793Z,8.30
2023-05-12T12:07:21.285Z,8.80
2023-05-12T12:09:21.543Z,8.70
2023-05-12T12:11:21.905Z,8.50
2023-05-12T12:13:22.179Z,9.30
2023-05-12T12:15:22.546Z,7.00
2023-05-12T12:17:22.920Z,6.80
2023-05-12T12:19:23.256Z,9.00
2023-05-12T12:21:23.554Z,8.70
2023-05-12T12:23:23.837Z,7.40
2023-05-12T12:25:24.133Z,11.60
2023-05-12T12:27:24.454Z,8.10
2023-05-12T12:29:24.711Z,5.90
2023-05-12T12:31:25.122Z,8.10
2023-05-12T12:33:25.438Z,6.30
2023-05-12T12:35:25.770Z,7.70
2023-05-12T12:37:26.135Z,8.30
2023-05-12T12:39:26.596Z,8.00
2023-05-12T12:41:26.932Z,10.90
2023-05-12T12:43:27.256Z,10.20
2023-05-12T12:45:27.549Z,9.10
2023-05-12T12:47:27.871Z,8.20
2023-05-12T12:49:28.154Z,6.90
2023-05-12T12:51:38.495Z,7.20
2023-05-12T12:53:33.630Z,7.20
2023-05-12T12:55:34.026Z,7.80
2023-05-12T12:57:34.302Z,8.50
2023-05-12T12:59:34.617Z,14.80
2023-05-12T13:01:35.284Z,8.20
2023-05-12T13:03:35.899Z,7.50
2023-05-12T13:05:36.239Z,7.50
2023-05-12T13:07:36.568Z,8.30
2023-05-12T13:09:36.888Z,8.30
2023-05-12T13:11:37.196Z,9.10
2023-05-12T13:13:37.544Z,9.50
2023-05-12T13:15:37.853Z,10.70
2023-05-12T13:17:38.179Z,8.90
2023-05-12T13:19:38.527Z,9.80
2023-05-12T13:21:38.784Z,7.40
2023-05-12T13:23:40.026Z,6.30
2023-05-12T13:25:40.258Z,9.00
2023-05-12T13:27:40.608Z,9.90
2023-05-12T13:29:40.869Z,9.90
2023-05-12T13:31:41.218Z,10.40
2023-05-12T13:33:41.524Z,15.00
2023-05-12T13:35:41.789Z,11.10
2023-05-12T13:37:42.095Z,7.10
2023-05-12T13:39:42.398Z,7.70
2023-05-12T13:41:42.715Z,8.10
2023-05-12T13:43:43.119Z,6.90
2023-05-12T13:45:43.370Z,5.90
2023-05-12T13:47:43.746Z,5.90
2023-05-12T13:49:43.996Z,6.80
2023-05-12T13:51:44.370Z,6.70
2023-05-12T13:53:44.685Z,6.80
2023-05-12T13:55:45.004Z,6.30
2023-05-12T13:57:45.278Z,9.10
2023-05-12T13:59:45.595Z,8.60
2023-05-12T14:01:45.930Z,7.10
2023-05-12T14:03:46.243Z,8.10
2023-05-12T14:05:46.514Z,7.70
2023-05-12T14:07:46.801Z,7.70
2023-05-12T14:09:47.112Z,5.90
2023-05-12T14:11:47.433Z,7.10
2023-05-12T14:13:47.793Z,6.10
2023-05-12T14:15:49.832Z,6.40
2023-05-12T14:17:50.723Z,6.90
2023-05-12T14:19:55.789Z,8.20
2023-05-12T14:21:56.182Z,6.60
2023-05-12T14:23:56.506Z,7.30
2023-05-12T14:25:56.823Z,7.90
2023-05-12T14:27:57.084Z,8.70
2023-05-12T14:29:57.532Z,9.40
2023-05-12T14:31:58.002Z,7.30
2023-05-12T14:33:58.255Z,6.50
2023-05-12T14:36:06.508Z,5.70
2023-05-12T14:38:03.773Z,7.50
2023-05-12T14:40:04.119Z,7.20
2023-05-12T14:42:04.491Z,7.40
2023-05-12T14:44:04.768Z,8.30
2023-05-12T14:46:05.094Z,8.20
2023-05-12T14:48:05.467Z,5.20
2023-05-12T14:50:05.741Z,5.10
2023-05-12T14:52:06.071Z,4.90
2023-05-12T14:54:12.569Z,6.70
2023-05-12T14:56:11.560Z,5.20
2023-05-12T14:58:11.943Z,4.70
2023-05-12T15:00:12.295Z,5.60
2023-05-12T15:02:12.696Z,3.30
2023-05-12T15:04:13.053Z,3.90
2023-05-12T15:06:14.255Z,5.00
2023-05-12T15:08:15.501Z,4.20
2023-05-12T15:10:15.792Z,3.00
2023-05-12T15:12:16.964Z,2.90
2023-05-12T15:14:17.997Z,2.90
2023-05-12T15:16:18.278Z,4.70
2023-05-12T15:18:18.639Z,4.10
2023-05-12T15:20:18.968Z,3.50
2023-05-12T15:22:19.833Z,6.80
2023-05-12T15:24:20.162Z,5.00
2023-05-12T15:26:32.774Z,5.00
2023-05-12T15:28:27.201Z,5.00
2023-05-12T15:31:09.134Z,4.80
2023-05-12T15:33:09.450Z,5.70
2023-05-12T15:35:09.732Z,4.40
2023-05-12T15:37:10.068Z,3.90
2023-05-12T15:39:10.400Z,4.60
2023-05-12T15:41:10.714Z,3.60
2023-05-12T15:43:11.000Z,6.30
2023-05-12T15:45:11.459Z,3.90
2023-05-12T15:47:11.818Z,4.00
2023-05-12T15:49:12.075Z,4.30
2023-05-12T15:51:12.386Z,5.30
2023-05-12T15:53:12.702Z,5.10
2023-05-12T15:55:12.955Z,4.40
2023-05-12T15:57:13.272Z,7.00
2023-05-12T15:59:13.572Z,6.70
2023-05-12T16:01:13.888Z,4.80
2023-05-12T16:03:14.227Z,4.40
2023-05-12T16:05:14.528Z,6.40
2023-05-12T16:07:15.082Z,3.60
2023-05-12T16:09:15.541Z,3.40
2023-05-12T16:11:15.883Z,4.70
2023-05-12T16:13:16.578Z,4.20
2023-05-12T16:15:17.102Z,5.10
2023-05-12T16:17:17.714Z,3.90
2023-05-12T16:19:18.178Z,1.90
2023-05-12T16:21:18.504Z,1.80
2023-05-12T16:23:19.672Z,3.70
2023-05-12T16:25:20.308Z,4.60
2023-05-12T16:27:20.730Z,3.90
2023-05-12T16:29:21.107Z,2.80
2023-05-12T16:31:21.417Z,3.00
2023-05-12T16:33:22.082Z,2.70
2023-05-12T16:35:22.509Z,2.90
2023-05-12T16:37:22.960Z,3.80
2023-05-12T16:39:23.292Z,3.70
2023-05-12T16:41:23.587Z,3.80
2023-05-12T16:43:23.905Z,3.70
2023-05-12T16:45:24.262Z,3.20
2023-05-12T16:47:24.553Z,2.60
2023-05-12T16:49:24.890Z,2.70
2023-05-12T16:51:25.182Z,3.60
2023-05-12T16:53:25.521Z,4.10
2023-05-12T16:55:25.871Z,2.30
2023-05-12T16:57:26.135Z,2.30
2023-05-12T16:59:26.470Z,2.40
2023-05-12T17:01:26.824Z,2.40
2023-05-12T17:03:27.242Z,4.40
2023-05-12T17:05:27.558Z,3.90
2023-05-12T17:07:27.924Z,4.80
2023-05-12T17:09:28.209Z,5.70
2023-05-12T17:11:28.819Z,4.10
2023-05-12T17:13:29.512Z,3.20
2023-05-12T17:15:29.816Z,3.20
2023-05-12T17:17:30.535Z,3.10
2023-05-12T17:19:31.045Z,2.40
2023-05-12T17:21:31.608Z,1.80
2023-05-12T17:23:31.868Z,2.00
2023-05-12T17:25:32.246Z,2.90
2023-05-12T17:27:32.508Z,2.90
2023-05-12T17:29:32.813Z,3.50
2023-05-12T17:31:33.161Z,1.90
2023-05-12T17:33:33.490Z,2.50
2023-05-12T17:35:33.765Z,2.30
2023-05-12T17:37:34.158Z,10.80
2023-05-12T17:39:34.423Z,4.90
2023-05-12T17:41:34.734Z,3.30
2023-05-12T17:43:34.998Z,2.40
2023-05-12T17:45:35.399Z,3.10
2023-05-12T17:47:35.727Z,2.70
2023-05-12T17:49:36.019Z,4.40
2023-05-12T17:51:36.565Z,2.00
2023-05-12T17:53:36.815Z,3.70
2023-05-12T17:55:37.106Z,1.90
2023-05-12T17:57:37.470Z,2.00
2023-05-12T17:59:37.827Z,2.50
2023-05-12T18:01:38.145Z,2.30
2023-05-12T18:03:38.568Z,1.80
2023-05-12T18:05:38.898Z,2.20
2023-05-12T18:07:39.219Z,2.70
2023-05-12T18:09:39.673Z,3.40
2023-05-12T18:11:39.938Z,3.40
2023-05-12T18:13:40.234Z,2.60
2023-05-12T18:15:40.555Z,2.40
2023-05-12T18:17:41.281Z,2.20
2023-05-12T18:19:41.931Z,2.40
2023-05-12T18:21:42.182Z,2.40
2023-05-12T18:23:42.528Z,2.70
2023-05-12T18:25:42.870Z,2.60
2023-05-12T18:27:43.156Z,2.20
2023-05-12T18:29:43.452Z,2.40
2023-05-12T18:31:43.963Z,3.30
2023-05-12T18:33:44.414Z,5.60
2023-05-12T18:35:44.823Z,5.40
2023-05-12T18:37:45.163Z,4.20
2023-05-12T18:39:45.438Z,3.00
2023-05-12T18:41:45.750Z,5.30
2023-05-12T18:43:46.044Z,3.10
2023-05-12T18:45:46.332Z,3.90
2023-05-12T18:47:46.702Z,2.10
2023-05-12T18:49:47.138Z,3.50
2023-05-12T18:51:47.483Z,4.70
2023-05-12T18:53:47.765Z,4.10
2023-05-12T18:55:48.242Z,4.70
2023-05-12T18:57:48.505Z,3.80
2023-05-12T18:59:48.852Z,4.10
2023-05-12T19:01:49.194Z,3.90
2023-05-12T19:03:49.498Z,3.60
2023-05-12T19:05:49.892Z,4.90
2023-05-12T19:07:50.194Z,3.40
2023-05-12T19:09:50.522Z,3.80
2023-05-12T19:11:51.070Z,4.10
2023-05-12T19:13:51.337Z,3.10
2023-05-12T19:15:51.669Z,5.60
2023-05-12T19:17:52.095Z,4.50
2023-05-12T19:19:52.437Z,4.80
2023-05-12T19:21:52.756Z,5.50
2023-05-12T19:23:53.040Z,5.20
2023-05-12T19:25:58.563Z,4.00
2023-05-12T19:27:58.924Z,3.30
2023-05-12T19:29:59.283Z,2.70
2023-05-12T19:31:59.726Z,4.00
2023-05-12T19:34:00.064Z,6.20
2023-05-12T19:36:00.369Z,6.40
2023-05-12T19:38:00.726Z,6.60
2023-05-12T19:40:01.081Z,5.10
2023-05-12T19:42:01.365Z,4.00
2023-05-12T19:44:02.118Z,3.90
2023-05-12T19:46:02.674Z,4.30
2023-05-12T19:48:03.213Z,3.30
2023-05-12T19:50:08.232Z,3.90
2023-05-12T19:52:08.775Z,3.90
2023-05-12T19:54:09.286Z,5.20
2023-05-12T19:56:09.767Z,5.60
2023-05-12T19:58:10.078Z,5.10
2023-05-12T20:00:10.376Z,4.80
2023-05-12T20:02:10.752Z,4.00
2023-05-12T20:04:11.068Z,4.80
2023-05-12T20:06:11.499Z,4.00
2023-05-12T20:08:11.992Z,4.00
2023-05-12T20:10:12.536Z,4.50
2023-05-12T20:12:12.883Z,5.80
2023-05-12T20:14:13.219Z,5.30
2023-05-12T20:16:13.507Z,5.00
2023-05-12T20:18:14.587Z,6.00
2023-05-12T20:20:15.103Z,7.10
2023-05-12T20:22:15.914Z,4.90
2023-05-12T20:24:16.163Z,3.60
2023-05-12T20:26:17.380Z,5.00
2023-05-12T20:28:17.660Z,4.70
2023-05-12T20:30:18.193Z,3.30
2023-05-12T20:32:18.502Z,4.80
2023-05-12T20:34:18.882Z,4.00
2023-05-12T20:36:19.190Z,3.10
2023-05-12T20:38:19.476Z,4.10
2023-05-12T20:40:20.114Z,4.10
2023-05-12T20:42:20.420Z,4.70
2023-05-12T20:44:20.823Z,4.10
2023-05-12T20:46:21.227Z,3.70
2023-05-12T20:48:26.288Z,3.60
2023-05-12T20:50:26.619Z,3.60
2023-05-12T20:52:26.932Z,7.10
2023-05-12T20:54:27.300Z,4.90
2023-05-12T20:56:27.580Z,4.10
2023-05-12T20:58:28.228Z,5.30
2023-05-12T21:00:28.573Z,5.30
2023-05-12T21:02:29.373Z,4.80
2023-05-12T21:04:29.852Z,3.90
2023-05-12T21:06:31.862Z,5.30
2023-05-12T21:08:32.293Z,6.00
2023-05-12T21:10:33.877Z,4.50
2023-05-12T21:12:34.243Z,4.40
2023-05-12T21:14:34.518Z,5.50
2023-05-12T21:16:34.792Z,4.90
2023-05-12T21:18:35.122Z,6.50
2023-05-12T21:20:35.442Z,5.80
2023-05-12T21:22:35.715Z,5.10
2023-05-12T21:24:36.069Z,4.10
2023-05-12T21:26:36.354Z,5.30
2023-05-12T21:28:36.713Z,7.90
2023-05-12T21:30:37.022Z,8.90
2023-05-12T21:32:37.313Z,10.50
2023-05-12T21:34:37.616Z,12.40
2023-05-12T21:36:37.883Z,10.40
2023-05-12T21:38:38.226Z,10.00
2023-05-12T21:40:38.529Z,6.30
2023-05-12T21:42:38.863Z,6.20
2023-05-12T21:44:39.126Z,5.20
2023-05-12T21:46:39.750Z,5.70
2023-05-12T21:48:40.230Z,5.20
2023-05-12T21:50:40.505Z,6.50
2023-05-12T21:52:40.796Z,7.20
2023-05-12T21:54:41.111Z,5.50
2023-05-12T21:56:41.507Z,6.20
2023-05-12T21:58:42.179Z,5.90
2023-05-12T22:00:42.837Z,6.60
2023-05-12T22:02:43.451Z,7.20
2023-05-12T22:04:44.539Z,5.70
2023-05-12T22:06:45.054Z,5.70
2023-05-12T22:08:45.524Z,5.50
2023-05-12T22:10:46.213Z,6.60
2023-05-12T22:12:46.629Z,6.10
2023-05-12T22:14:46.947Z,6.00
2023-05-12T22:16:47.342Z,7.00
2023-05-12T22:18:49.161Z,7.40
2023-05-12T22:20:49.509Z,7.10
2023-05-12T22:22:49.917Z,6.80
2023-05-12T22:24:50.295Z,6.30
2023-05-12T22:26:50.726Z,6.80
2023-05-12T22:28:51.015Z,9.00
2023-05-12T22:30:51.502Z,10.60
2023-05-12T22:32:51.910Z,9.10
2023-05-12T22:34:52.222Z,7.50
2023-05-12T22:36:52.666Z,6.40
2023-05-12T22:38:52.913Z,6.00
2023-05-12T22:40:53.202Z,6.30
2023-05-12T22:42:53.733Z,6.70
2023-05-12T22:44:53.983Z,6.70
2023-05-12T22:46:54.914Z,7.40
2023-05-12T22:48:55.251Z,6.20
2023-05-12T22:50:55.567Z,6.90
2023-05-12T22:52:55.822Z,6.50
2023-05-12T22:54:56.186Z,6.20
2023-05-12T22:56:56.430Z,6.60
2023-05-12T22:58:56.742Z,6.70
2023-05-12T23:00:57.037Z,6.20
2023-05-12T23:02:57.482Z,7.80
2023-05-12T23:04:57.762Z,7.50
2023-05-12T23:06:58.077Z,8.10
2023-05-12T23:08:58.356Z,6.20
2023-05-12T23:10:58.768Z,7.90
2023-05-12T23:12:59.147Z,7.40
2023-05-12T23:14:59.856Z,7.10
2023-05-12T23:17:00.267Z,6.90
2023-05-12T23:19:00.697Z,6.80
2023-05-12T23:21:00.976Z,8.80
2023-05-12T23:23:01.326Z,7.30
2023-05-12T23:25:01.565Z,7.70
2023-05-12T23:27:01.880Z,7.60
2023-05-12T23:29:02.293Z,7.40
2023-05-12T23:31:02.568Z,7.80
2023-05-12T23:33:02.902Z,9.30
2023-05-12T23:35:03.318Z,7.90
2023-05-12T23:37:03.587Z,8.60
2023-05-12T23:39:03.905Z,9.10
2023-05-12T23:41:04.224Z,8.30
2023-05-12T23:43:04.535Z,8.30
2023-05-12T23:45:04.831Z,8.20
2023-05-12T23:47:05.184Z,9.00
2023-05-12T23:49:05.525Z,10.00
2023-05-12T23:51:05.875Z,7.60
2023-05-12T23:53:06.149Z,8.40
2023-05-12T23:55:06.889Z,8.50
2023-05-12T23:57:07.240Z,8.20
2023-05-12T23:59:07.565Z,8.40
